Marthasville, Missouri
Current Conditions -  °F | °C
As of 5:55 PM on Wednesday 28 Jan 2015 (Local Time) from KFYG Reporting Station
Clear Clear  
Wind Chill:   Ceiling: Unl
Heat Index:   Visibility: 10mi
Dew Point:   Wind: 13mph
Humidity: 54%   Direction: 150°SSE
Pressure: 29.92"   Gusts: NA
Location:  38.63°N, 91.06°W
Report Text: KFYG 282355Z AUTO 15011KT 10SM CLR 09/00 A2992 RMK AO2
Loading
Personal Weather Stations






























Interactive Weather Map New forecast layout! Learn more

10-Day Weather Forecast

Advertisements
Track Severe Weather on mobile